sensor_id;sensor_type;location;lat;lon;timestamp;temperature;humidity
20750;DHT22;10535;50.664;4.564;2023-10-08T00:01:05;16.90;99.90
20750;DHT22;10535;50.664;4.564;2023-10-08T00:03:38;16.90;99.90
20750;DHT22;10535;50.664;4.564;2023-10-08T00:06:04;16.70;99.90
20750;DHT22;10535;50.664;4.564;2023-10-08T00:08:38;16.70;99.90
20750;DHT22;10535;50.664;4.564;2023-10-08T00:11:04;16.60;99.90
20750;DHT22;10535;50.664;4.564;2023-10-08T00:13:35;16.50;99.90
20750;DHT22;10535;50.664;4.564;2023-10-08T00:16:14;16.50;99.90
20750;DHT22;10535;50.664;4.564;2023-10-08T00:18:43;16.60;99.90
20750;DHT22;10535;50.664;4.564;2023-10-08T00:21:17;16.50;99.90
20750;DHT22;10535;50.664;4.564;2023-10-08T00:23:45;16.40;99.90
20750;DHT22;10535;50.664;4.564;2023-10-08T00:26:23;16.40;99.90
20750;DHT22;10535;50.664;4.564;2023-10-08T00:29:01;16.40;99.90
20750;DHT22;10535;50.664;4.564;2023-10-08T00:31:33;16.20;99.90
20750;DHT22;10535;50.664;4.564;2023-10-08T00:34:06;16.20;99.90
20750;DHT22;10535;50.664;4.564;2023-10-08T00:36:37;16.00;99.90
20750;DHT22;10535;50.664;4.564;2023-10-08T00:39:04;16.10;99.90
20750;DHT22;10535;50.664;4.564;2023-10-08T00:41:33;16.00;99.90
20750;DHT22;10535;50.664;4.564;2023-10-08T00:43:59;15.90;99.90
20750;DHT22;10535;50.664;4.564;2023-10-08T00:46:26;15.80;99.90
20750;DHT22;10535;50.664;4.564;2023-10-08T00:48:57;15.80;99.90
20750;DHT22;10535;50.664;4.564;2023-10-08T00:51:25;15.80;99.90
20750;DHT22;10535;50.664;4.564;2023-10-08T00:54:05;15.80;99.90
20750;DHT22;10535;50.664;4.564;2023-10-08T00:56:33;15.70;99.90
20750;DHT22;10535;50.664;4.564;2023-10-08T00:59:17;15.70;99.90
20750;DHT22;10535;50.664;4.564;2023-10-08T01:01:47;15.60;99.90
20750;DHT22;10535;50.664;4.564;2023-10-08T01:04:31;15.60;99.90
20750;DHT22;10535;50.664;4.564;2023-10-08T01:07:01;15.60;99.90
20750;DHT22;10535;50.664;4.564;2023-10-08T01:09:41;15.40;99.90
20750;DHT22;10535;50.664;4.564;2023-10-08T01:12:23;15.50;99.90
20750;DHT22;10535;50.664;4.564;2023-10-08T01:15:02;15.40;99.90
20750;DHT22;10535;50.664;4.564;2023-10-08T01:17:41;15.50;99.90
20750;DHT22;10535;50.664;4.564;2023-10-08T01:20:17;15.60;99.90
20750;DHT22;10535;50.664;4.564;2023-10-08T01:23:10;15.50;99.90
20750;DHT22;10535;50.664;4.564;2023-10-08T01:25:43;15.50;99.90
20750;DHT22;10535;50.664;4.564;2023-10-08T01:28:16;15.50;99.90
20750;DHT22;10535;50.664;4.564;2023-10-08T01:30:59;15.50;99.90
20750;DHT22;10535;50.664;4.564;2023-10-08T01:33:28;15.40;99.90
20750;DHT22;10535;50.664;4.564;2023-10-08T01:35:56;15.30;99.90
20750;DHT22;10535;50.664;4.564;2023-10-08T01:38:29;15.20;99.90
20750;DHT22;10535;50.664;4.564;2023-10-08T01:40:54;15.20;99.90
20750;DHT22;10535;50.664;4.564;2023-10-08T01:43:22;15.20;99.90
20750;DHT22;10535;50.664;4.564;2023-10-08T01:45:48;15.10;99.90
20750;DHT22;10535;50.664;4.564;2023-10-08T01:48:15;15.10;99.90
20750;DHT22;10535;50.664;4.564;2023-10-08T01:50:55;15.10;99.90
20750;DHT22;10535;50.664;4.564;2023-10-08T01:53:21;15.10;99.90
20750;DHT22;10535;50.664;4.564;2023-10-08T01:55:47;15.10;99.90
20750;DHT22;10535;50.664;4.564;2023-10-08T01:58:17;15.00;99.90
20750;DHT22;10535;50.664;4.564;2023-10-08T02:00:47;14.90;99.90
20750;DHT22;10535;50.664;4.564;2023-10-08T02:03:14;14.90;99.90
20750;DHT22;10535;50.664;4.564;2023-10-08T02:05:44;14.90;99.90
20750;DHT22;10535;50.664;4.564;2023-10-08T02:08:14;14.90;99.90
20750;DHT22;10535;50.664;4.564;2023-10-08T02:10:41;14.80;99.90
20750;DHT22;10535;50.664;4.564;2023-10-08T02:13:08;14.70;99.90
20750;DHT22;10535;50.664;4.564;2023-10-08T02:15:45;14.70;99.90
20750;DHT22;10535;50.664;4.564;2023-10-08T02:18:11;14.60;99.90
20750;DHT22;10535;50.664;4.564;2023-10-08T02:20:42;14.70;99.90
20750;DHT22;10535;50.664;4.564;2023-10-08T02:23:08;14.60;99.90
20750;DHT22;10535;50.664;4.564;2023-10-08T02:25:37;14.60;99.90
20750;DHT22;10535;50.664;4.564;2023-10-08T02:28:06;14.50;99.90
20750;DHT22;10535;50.664;4.564;2023-10-08T02:30:34;14.50;99.90
20750;DHT22;10535;50.664;4.564;2023-10-08T02:33:00;14.50;99.90
20750;DHT22;10535;50.664;4.564;2023-10-08T02:35:25;14.50;99.90
20750;DHT22;10535;50.664;4.564;2023-10-08T02:37:52;14.50;99.90
20750;DHT22;10535;50.664;4.564;2023-10-08T02:40:20;14.50;99.90
20750;DHT22;10535;50.664;4.564;2023-10-08T02:42:53;14.40;99.90
20750;DHT22;10535;50.664;4.564;2023-10-08T02:45:25;14.40;99.90
20750;DHT22;10535;50.664;4.564;2023-10-08T02:47:51;14.30;99.90
20750;DHT22;10535;50.664;4.564;2023-10-08T02:50:18;14.30;99.90
20750;DHT22;10535;50.664;4.564;2023-10-08T02:52:44;14.30;99.90
20750;DHT22;10535;50.664;4.564;2023-10-08T02:55:10;14.30;99.90
20750;DHT22;10535;50.664;4.564;2023-10-08T02:57:49;14.20;99.90
20750;DHT22;10535;50.664;4.564;2023-10-08T03:00:16;14.20;99.90
20750;DHT22;10535;50.664;4.564;2023-10-08T03:02:44;14.20;99.90
20750;DHT22;10535;50.664;4.564;2023-10-08T03:05:12;14.10;99.90
20750;DHT22;10535;50.664;4.564;2023-10-08T03:07:41;14.10;99.90
20750;DHT22;10535;50.664;4.564;2023-10-08T03:10:07;14.10;99.90
20750;DHT22;10535;50.664;4.564;2023-10-08T03:12:46;14.20;99.90
20750;DHT22;10535;50.664;4.564;2023-10-08T03:15:13;14.20;99.90
20750;DHT22;10535;50.664;4.564;2023-10-08T03:17:43;14.20;99.90
20750;DHT22;10535;50.664;4.564;2023-10-08T03:20:15;14.20;99.90
20750;DHT22;10535;50.664;4.564;2023-10-08T03:22:55;14.20;99.90
20750;DHT22;10535;50.664;4.564;2023-10-08T03:25:22;14.30;99.90
20750;DHT22;10535;50.664;4.564;2023-10-08T03:27:50;14.30;99.90
20750;DHT22;10535;50.664;4.564;2023-10-08T03:30:16;14.30;99.90
20750;DHT22;10535;50.664;4.564;2023-10-08T03:32:45;14.30;99.90
20750;DHT22;10535;50.664;4.564;2023-10-08T03:35:11;14.30;99.90
20750;DHT22;10535;50.664;4.564;2023-10-08T03:37:42;14.30;99.90
20750;DHT22;10535;50.664;4.564;2023-10-08T03:40:12;14.30;99.90
20750;DHT22;10535;50.664;4.564;2023-10-08T03:42:51;14.30;99.90
20750;DHT22;10535;50.664;4.564;2023-10-08T03:45:21;14.30;99.90
20750;DHT22;10535;50.664;4.564;2023-10-08T03:48:05;14.30;99.90
20750;DHT22;10535;50.664;4.564;2023-10-08T03:50:37;14.30;99.90
20750;DHT22;10535;50.664;4.564;2023-10-08T03:53:09;14.30;99.90
20750;DHT22;10535;50.664;4.564;2023-10-08T03:55:41;14.30;99.90
20750;DHT22;10535;50.664;4.564;2023-10-08T03:58:10;14.30;99.90
20750;DHT22;10535;50.664;4.564;2023-10-08T04:00:43;14.30;99.90
20750;DHT22;10535;50.664;4.564;2023-10-08T04:03:11;14.30;99.90
20750;DHT22;10535;50.664;4.564;2023-10-08T04:05:37;14.20;99.90
20750;DHT22;10535;50.664;4.564;2023-10-08T04:08:30;14.20;99.90
20750;DHT22;10535;50.664;4.564;2023-10-08T04:11:23;14.10;99.90
20750;DHT22;10535;50.664;4.564;2023-10-08T04:14:01;14.10;99.90
20750;DHT22;10535;50.664;4.564;2023-10-08T04:16:28;14.10;99.90
20750;DHT22;10535;50.664;4.564;2023-10-08T04:18:55;13.90;99.90
20750;DHT22;10535;50.664;4.564;2023-10-08T04:21:28;13.90;99.90
20750;DHT22;10535;50.664;4.564;2023-10-08T04:23:55;13.90;99.90
20750;DHT22;10535;50.664;4.564;2023-10-08T04:26:23;14.00;99.90
20750;DHT22;10535;50.664;4.564;2023-10-08T04:28:56;14.00;99.90
20750;DHT22;10535;50.664;4.564;2023-10-08T04:31:28;13.90;99.90
20750;DHT22;10535;50.664;4.564;2023-10-08T04:34:03;14.00;99.90
20750;DHT22;10535;50.664;4.564;2023-10-08T04:36:35;13.90;99.90
20750;DHT22;10535;50.664;4.564;2023-10-08T04:39:06;13.90;99.90
20750;DHT22;10535;50.664;4.564;2023-10-08T04:41:42;13.90;99.90
20750;DHT22;10535;50.664;4.564;2023-10-08T04:44:09;13.80;99.90
20750;DHT22;10535;50.664;4.564;2023-10-08T04:46:44;13.80;99.90
20750;DHT22;10535;50.664;4.564;2023-10-08T04:49:17;13.90;99.90
20750;DHT22;10535;50.664;4.564;2023-10-08T04:52:01;13.90;99.90
20750;DHT22;10535;50.664;4.564;2023-10-08T04:54:34;13.90;99.90
20750;DHT22;10535;50.664;4.564;2023-10-08T04:57:06;13.80;99.90
20750;DHT22;10535;50.664;4.564;2023-10-08T04:59:32;13.70;99.90
20750;DHT22;10535;50.664;4.564;2023-10-08T05:02:04;13.70;99.90
20750;DHT22;10535;50.664;4.564;2023-10-08T05:04:50;13.70;99.90
20750;DHT22;10535;50.664;4.564;2023-10-08T05:07:35;13.70;99.90
20750;DHT22;10535;50.664;4.564;2023-10-08T05:10:10;13.70;99.90
20750;DHT22;10535;50.664;4.564;2023-10-08T05:12:52;13.70;99.90
20750;DHT22;10535;50.664;4.564;2023-10-08T05:15:31;13.70;99.90
20750;DHT22;10535;50.664;4.564;2023-10-08T05:18:07;13.70;99.90
20750;DHT22;10535;50.664;4.564;2023-10-08T05:20:42;13.70;99.90
20750;DHT22;10535;50.664;4.564;2023-10-08T05:23:15;13.70;99.90
20750;DHT22;10535;50.664;4.564;2023-10-08T05:25:54;13.70;99.90
20750;DHT22;10535;50.664;4.564;2023-10-08T05:28:36;13.70;99.90
20750;DHT22;10535;50.664;4.564;2023-10-08T05:31:08;13.70;99.90
20750;DHT22;10535;50.664;4.564;2023-10-08T05:33:43;13.70;99.90
20750;DHT22;10535;50.664;4.564;2023-10-08T05:36:29;13.60;99.90
20750;DHT22;10535;50.664;4.564;2023-10-08T05:39:18;13.50;99.90
20750;DHT22;10535;50.664;4.564;2023-10-08T05:41:49;13.50;99.90
20750;DHT22;10535;50.664;4.564;2023-10-08T05:44:30;13.40;99.90
20750;DHT22;10535;50.664;4.564;2023-10-08T05:47:05;13.40;99.90
20750;DHT22;10535;50.664;4.564;2023-10-08T05:49:37;13.50;99.90
20750;DHT22;10535;50.664;4.564;2023-10-08T05:52:20;13.50;99.90
20750;DHT22;10535;50.664;4.564;2023-10-08T05:54:56;13.30;99.90
20750;DHT22;10535;50.664;4.564;2023-10-08T05:57:46;13.40;99.90
20750;DHT22;10535;50.664;4.564;2023-10-08T06:00:17;13.40;99.90
20750;DHT22;10535;50.664;4.564;2023-10-08T06:02:54;13.30;99.90
20750;DHT22;10535;50.664;4.564;2023-10-08T06:05:35;13.30;99.90
20750;DHT22;10535;50.664;4.564;2023-10-08T06:08:09;13.30;99.90
20750;DHT22;10535;50.664;4.564;2023-10-08T06:10:40;13.30;99.90
20750;DHT22;10535;50.664;4.564;2023-10-08T06:13:10;13.20;99.90
20750;DHT22;10535;50.664;4.564;2023-10-08T06:15:50;13.30;99.90
20750;DHT22;10535;50.664;4.564;2023-10-08T06:18:28;13.30;99.90
20750;DHT22;10535;50.664;4.564;2023-10-08T06:20:55;13.40;99.90
20750;DHT22;10535;50.664;4.564;2023-10-08T06:23:21;13.40;99.90
20750;DHT22;10535;50.664;4.564;2023-10-08T06:25:49;13.60;99.90
20750;DHT22;10535;50.664;4.564;2023-10-08T06:28:22;13.70;99.90
20750;DHT22;10535;50.664;4.564;2023-10-08T06:30:54;13.70;99.90
20750;DHT22;10535;50.664;4.564;2023-10-08T06:33:21;13.80;99.90
20750;DHT22;10535;50.664;4.564;2023-10-08T06:35:48;13.80;99.90
20750;DHT22;10535;50.664;4.564;2023-10-08T06:38:34;13.80;99.90
20750;DHT22;10535;50.664;4.564;2023-10-08T06:41:06;14.00;99.90
20750;DHT22;10535;50.664;4.564;2023-10-08T06:43:43;14.10;99.90
20750;DHT22;10535;50.664;4.564;2023-10-08T06:46:29;14.30;99.90
20750;DHT22;10535;50.664;4.564;2023-10-08T06:49:07;14.40;99.90
20750;DHT22;10535;50.664;4.564;2023-10-08T06:51:41;14.70;99.90
20750;DHT22;10535;50.664;4.564;2023-10-08T06:54:14;14.80;99.90
20750;DHT22;10535;50.664;4.564;2023-10-08T06:56:49;14.80;99.90
20750;DHT22;10535;50.664;4.564;2023-10-08T06:59:18;14.90;99.90
20750;DHT22;10535;50.664;4.564;2023-10-08T07:01:48;14.90;99.90
20750;DHT22;10535;50.664;4.564;2023-10-08T07:04:31;15.10;99.90
20750;DHT22;10535;50.664;4.564;2023-10-08T07:06:57;15.20;99.90
20750;DHT22;10535;50.664;4.564;2023-10-08T07:09:25;15.30;99.90
20750;DHT22;10535;50.664;4.564;2023-10-08T07:11:55;15.50;99.90
20750;DHT22;10535;50.664;4.564;2023-10-08T07:14:37;15.70;99.90
20750;DHT22;10535;50.664;4.564;2023-10-08T07:17:29;15.70;99.90
20750;DHT22;10535;50.664;4.564;2023-10-08T07:20:23;15.70;99.90
20750;DHT22;10535;50.664;4.564;2023-10-08T07:23:12;15.70;99.90
20750;DHT22;10535;50.664;4.564;2023-10-08T07:26:07;15.80;99.90
20750;DHT22;10535;50.664;4.564;2023-10-08T07:29:11;15.80;99.90
20750;DHT22;10535;50.664;4.564;2023-10-08T07:32:28;16.00;99.90
20750;DHT22;10535;50.664;4.564;2023-10-08T07:35:21;16.20;99.90
20750;DHT22;10535;50.664;4.564;2023-10-08T07:38:07;16.30;99.90
20750;DHT22;10535;50.664;4.564;2023-10-08T07:41:13;16.30;99.90
20750;DHT22;10535;50.664;4.564;2023-10-08T07:44:13;16.40;99.90
20750;DHT22;10535;50.664;4.564;2023-10-08T07:47:23;16.60;99.90
20750;DHT22;10535;50.664;4.564;2023-10-08T07:50:45;16.70;99.90
20750;DHT22;10535;50.664;4.564;2023-10-08T07:54:14;17.10;99.90
20750;DHT22;10535;50.664;4.564;2023-10-08T07:57:08;17.50;99.90
20750;DHT22;10535;50.664;4.564;2023-10-08T07:59:43;17.50;99.90
20750;DHT22;10535;50.664;4.564;2023-10-08T08:02:16;17.70;99.90
20750;DHT22;10535;50.664;4.564;2023-10-08T08:04:54;18.00;99.90
20750;DHT22;10535;50.664;4.564;2023-10-08T08:07:30;18.20;99.90
20750;DHT22;10535;50.664;4.564;2023-10-08T08:10:14;18.10;99.90
20750;DHT22;10535;50.664;4.564;2023-10-08T08:12:43;18.10;99.90
20750;DHT22;10535;50.664;4.564;2023-10-08T08:15:11;18.10;99.90
20750;DHT22;10535;50.664;4.564;2023-10-08T08:17:47;18.20;99.90
20750;DHT22;10535;50.664;4.564;2023-10-08T08:20:14;18.20;99.90
20750;DHT22;10535;50.664;4.564;2023-10-08T08:22:47;18.20;99.90
20750;DHT22;10535;50.664;4.564;2023-10-08T08:25:17;18.30;99.90
20750;DHT22;10535;50.664;4.564;2023-10-08T08:28:04;18.50;99.90
20750;DHT22;10535;50.664;4.564;2023-10-08T08:30:32;18.50;99.90
20750;DHT22;10535;50.664;4.564;2023-10-08T08:33:00;18.60;99.90
20750;DHT22;10535;50.664;4.564;2023-10-08T08:35:35;18.60;99.90
20750;DHT22;10535;50.664;4.564;2023-10-08T08:38:01;18.60;99.90
20750;DHT22;10535;50.664;4.564;2023-10-08T08:40:31;18.70;99.90
20750;DHT22;10535;50.664;4.564;2023-10-08T08:42:59;18.80;99.90
20750;DHT22;10535;50.664;4.564;2023-10-08T08:45:27;18.90;99.90
20750;DHT22;10535;50.664;4.564;2023-10-08T08:47:57;18.80;99.90
20750;DHT22;10535;50.664;4.564;2023-10-08T08:50:23;18.90;99.90
20750;DHT22;10535;50.664;4.564;2023-10-08T08:52:49;19.10;99.90
20750;DHT22;10535;50.664;4.564;2023-10-08T08:55:17;19.30;99.90
20750;DHT22;10535;50.664;4.564;2023-10-08T08:57:51;19.30;99.90
20750;DHT22;10535;50.664;4.564;2023-10-08T09:00:19;19.40;99.90
20750;DHT22;10535;50.664;4.564;2023-10-08T09:02:46;19.50;99.90
20750;DHT22;10535;50.664;4.564;2023-10-08T09:05:13;19.60;99.90
20750;DHT22;10535;50.664;4.564;2023-10-08T09:08:05;19.80;99.90
20750;DHT22;10535;50.664;4.564;2023-10-08T09:10:40;20.00;99.90
20750;DHT22;10535;50.664;4.564;2023-10-08T09:13:22;20.20;99.90
20750;DHT22;10535;50.664;4.564;2023-10-08T09:15:49;20.20;99.90
20750;DHT22;10535;50.664;4.564;2023-10-08T09:18:15;20.40;99.90
20750;DHT22;10535;50.664;4.564;2023-10-08T09:20:40;20.60;99.90
20750;DHT22;10535;50.664;4.564;2023-10-08T09:23:16;20.80;99.90
20750;DHT22;10535;50.664;4.564;2023-10-08T09:25:47;21.10;99.90
20750;DHT22;10535;50.664;4.564;2023-10-08T09:28:24;21.10;99.90
20750;DHT22;10535;50.664;4.564;2023-10-08T09:30:50;21.20;99.90
20750;DHT22;10535;50.664;4.564;2023-10-08T09:33:17;21.40;99.90
20750;DHT22;10535;50.664;4.564;2023-10-08T09:35:43;21.40;99.90
20750;DHT22;10535;50.664;4.564;2023-10-08T09:38:11;21.40;99.90
20750;DHT22;10535;50.664;4.564;2023-10-08T09:40:41;21.30;99.90
20750;DHT22;10535;50.664;4.564;2023-10-08T09:43:11;21.40;99.90
20750;DHT22;10535;50.664;4.564;2023-10-08T09:45:38;21.50;99.90
20750;DHT22;10535;50.664;4.564;2023-10-08T09:48:10;21.60;99.90
20750;DHT22;10535;50.664;4.564;2023-10-08T09:50:42;21.60;99.90
20750;DHT22;10535;50.664;4.564;2023-10-08T09:53:13;21.50;99.90
20750;DHT22;10535;50.664;4.564;2023-10-08T09:55:57;21.60;99.90
20750;DHT22;10535;50.664;4.564;2023-10-08T09:58:25;21.50;99.90
20750;DHT22;10535;50.664;4.564;2023-10-08T10:00:53;21.70;99.90
20750;DHT22;10535;50.664;4.564;2023-10-08T10:03:20;21.60;99.90
20750;DHT22;10535;50.664;4.564;2023-10-08T10:05:48;21.50;99.90
20750;DHT22;10535;50.664;4.564;2023-10-08T10:08:15;21.20;99.90
20750;DHT22;10535;50.664;4.564;2023-10-08T10:10:42;21.20;99.90
20750;DHT22;10535;50.664;4.564;2023-10-08T10:13:16;21.20;99.90
20750;DHT22;10535;50.664;4.564;2023-10-08T10:15:42;21.20;99.90
20750;DHT22;10535;50.664;4.564;2023-10-08T10:18:29;21.20;99.90
20750;DHT22;10535;50.664;4.564;2023-10-08T10:21:23;21.50;99.90
20750;DHT22;10535;50.664;4.564;2023-10-08T10:23:46;21.70;99.90
20750;DHT22;10535;50.664;4.564;2023-10-08T10:31:37;21.70;99.90
20750;DHT22;10535;50.664;4.564;2023-10-08T10:34:06;21.80;99.90
20750;DHT22;10535;50.664;4.564;2023-10-08T10:36:49;21.60;99.90
20750;DHT22;10535;50.664;4.564;2023-10-08T10:39:22;21.70;99.90
20750;DHT22;10535;50.664;4.564;2023-10-08T10:42:04;21.80;99.90
20750;DHT22;10535;50.664;4.564;2023-10-08T10:44:33;21.70;99.90
20750;DHT22;10535;50.664;4.564;2023-10-08T10:47:02;21.70;99.90
20750;DHT22;10535;50.664;4.564;2023-10-08T10:49:50;22.00;99.90
20750;DHT22;10535;50.664;4.564;2023-10-08T10:52:17;22.20;99.90
20750;DHT22;10535;50.664;4.564;2023-10-08T10:55:04;22.10;99.90
20750;DHT22;10535;50.664;4.564;2023-10-08T10:58:05;22.40;99.90
20750;DHT22;10535;50.664;4.564;2023-10-08T11:00:41;22.50;99.90
20750;DHT22;10535;50.664;4.564;2023-10-08T11:03:10;22.40;99.90
20750;DHT22;10535;50.664;4.564;2023-10-08T11:05:43;22.60;99.90
20750;DHT22;10535;50.664;4.564;2023-10-08T11:10:56;22.70;99.90
20750;DHT22;10535;50.664;4.564;2023-10-08T11:13:44;22.80;99.90
20750;DHT22;10535;50.664;4.564;2023-10-08T11:16:15;22.40;99.90
20750;DHT22;10535;50.664;4.564;2023-10-08T11:18:46;22.40;99.90
20750;DHT22;10535;50.664;4.564;2023-10-08T11:21:17;22.50;99.90
20750;DHT22;10535;50.664;4.564;2023-10-08T11:23:55;22.50;99.90
20750;DHT22;10535;50.664;4.564;2023-10-08T11:26:25;22.60;99.90
20750;DHT22;10535;50.664;4.564;2023-10-08T11:29:24;22.80;99.90
20750;DHT22;10535;50.664;4.564;2023-10-08T11:31:51;22.90;99.90
20750;DHT22;10535;50.664;4.564;2023-10-08T11:34:20;22.90;99.90
20750;DHT22;10535;50.664;4.564;2023-10-08T11:36:53;22.80;99.90
20750;DHT22;10535;50.664;4.564;2023-10-08T11:39:18;22.70;99.90
20750;DHT22;10535;50.664;4.564;2023-10-08T11:42:07;22.80;99.90
20750;DHT22;10535;50.664;4.564;2023-10-08T11:44:52;22.80;99.90
20750;DHT22;10535;50.664;4.564;2023-10-08T11:50:35;22.80;99.90
20750;DHT22;10535;50.664;4.564;2023-10-08T11:53:23;22.80;99.90
20750;DHT22;10535;50.664;4.564;2023-10-08T11:59:08;22.90;99.90
20750;DHT22;10535;50.664;4.564;2023-10-08T12:01:58;22.90;99.90
20750;DHT22;10535;50.664;4.564;2023-10-08T12:08:22;23.20;99.90
20750;DHT22;10535;50.664;4.564;2023-10-08T12:11:20;23.10;99.90
20750;DHT22;10535;50.664;4.564;2023-10-08T12:14:29;23.00;99.90
20750;DHT22;10535;50.664;4.564;2023-10-08T12:17:26;23.00;99.90
20750;DHT22;10535;50.664;4.564;2023-10-08T12:20:25;23.20;99.90
20750;DHT22;10535;50.664;4.564;2023-10-08T12:23:47;23.50;99.90
20750;DHT22;10535;50.664;4.564;2023-10-08T12:26:20;23.70;99.90
20750;DHT22;10535;50.664;4.564;2023-10-08T12:29:47;23.90;99.90
20750;DHT22;10535;50.664;4.564;2023-10-08T12:33:10;24.10;99.90
20750;DHT22;10535;50.664;4.564;2023-10-08T12:36:33;24.30;99.90
20750;DHT22;10535;50.664;4.564;2023-10-08T12:39:10;24.20;99.90
20750;DHT22;10535;50.664;4.564;2023-10-08T12:42:02;24.20;99.90
20750;DHT22;10535;50.664;4.564;2023-10-08T12:45:31;24.20;99.90
20750;DHT22;10535;50.664;4.564;2023-10-08T12:48:53;24.20;99.90
20750;DHT22;10535;50.664;4.564;2023-10-08T12:51:57;23.90;99.90
20750;DHT22;10535;50.664;4.564;2023-10-08T12:55:07;23.90;99.90
20750;DHT22;10535;50.664;4.564;2023-10-08T12:58:09;23.90;99.90
20750;DHT22;10535;50.664;4.564;2023-10-08T13:01:05;23.80;99.90
20750;DHT22;10535;50.664;4.564;2023-10-08T13:03:40;23.80;99.90
20750;DHT22;10535;50.664;4.564;2023-10-08T13:06:34;23.90;99.90
20750;DHT22;10535;50.664;4.564;2023-10-08T13:09:04;23.60;99.90
20750;DHT22;10535;50.664;4.564;2023-10-08T13:12:00;23.50;99.90
20750;DHT22;10535;50.664;4.564;2023-10-08T13:14:26;23.70;99.90
20750;DHT22;10535;50.664;4.564;2023-10-08T13:16:52;23.80;99.90
20750;DHT22;10535;50.664;4.564;2023-10-08T13:19:37;23.90;99.90
20750;DHT22;10535;50.664;4.564;2023-10-08T13:22:06;24.10;99.90
20750;DHT22;10535;50.664;4.564;2023-10-08T13:25:00;24.10;99.90
20750;DHT22;10535;50.664;4.564;2023-10-08T13:27:30;24.30;99.90
20750;DHT22;10535;50.664;4.564;2023-10-08T13:30:16;24.40;99.90
20750;DHT22;10535;50.664;4.564;2023-10-08T13:32:46;24.40;99.90
20750;DHT22;10535;50.664;4.564;2023-10-08T13:35:13;24.40;99.90
20750;DHT22;10535;50.664;4.564;2023-10-08T13:37:38;24.50;99.90
20750;DHT22;10535;50.664;4.564;2023-10-08T13:40:06;24.60;99.90
20750;DHT22;10535;50.664;4.564;2023-10-08T13:42:32;24.40;99.90
20750;DHT22;10535;50.664;4.564;2023-10-08T13:44:58;24.30;99.90
20750;DHT22;10535;50.664;4.564;2023-10-08T13:47:27;24.20;99.90
20750;DHT22;10535;50.664;4.564;2023-10-08T13:49:55;24.30;99.90
20750;DHT22;10535;50.664;4.564;2023-10-08T13:52:22;24.30;99.90
20750;DHT22;10535;50.664;4.564;2023-10-08T13:54:52;24.50;99.90
20750;DHT22;10535;50.664;4.564;2023-10-08T13:57:21;24.50;99.90
20750;DHT22;10535;50.664;4.564;2023-10-08T13:59:47;24.50;99.90
20750;DHT22;10535;50.664;4.564;2023-10-08T14:02:14;24.40;99.90
20750;DHT22;10535;50.664;4.564;2023-10-08T14:04:41;24.30;99.90
20750;DHT22;10535;50.664;4.564;2023-10-08T14:07:12;24.40;99.90
20750;DHT22;10535;50.664;4.564;2023-10-08T14:09:45;24.50;99.90
20750;DHT22;10535;50.664;4.564;2023-10-08T14:12:11;24.50;99.90
20750;DHT22;10535;50.664;4.564;2023-10-08T14:14:38;24.30;99.90
20750;DHT22;10535;50.664;4.564;2023-10-08T14:17:12;24.40;99.90
20750;DHT22;10535;50.664;4.564;2023-10-08T14:19:43;24.50;99.90
20750;DHT22;10535;50.664;4.564;2023-10-08T14:22:13;24.50;99.90
20750;DHT22;10535;50.664;4.564;2023-10-08T14:24:42;24.40;99.90
20750;DHT22;10535;50.664;4.564;2023-10-08T14:27:10;24.40;99.90
20750;DHT22;10535;50.664;4.564;2023-10-08T14:29:44;24.30;99.90
20750;DHT22;10535;50.664;4.564;2023-10-08T14:32:12;24.30;99.90
20750;DHT22;10535;50.664;4.564;2023-10-08T14:34:38;24.40;99.90
20750;DHT22;10535;50.664;4.564;2023-10-08T14:37:22;24.20;99.90
20750;DHT22;10535;50.664;4.564;2023-10-08T14:40:07;24.20;99.90
20750;DHT22;10535;50.664;4.564;2023-10-08T14:42:51;24.20;99.90
20750;DHT22;10535;50.664;4.564;2023-10-08T14:45:34;24.30;99.90
20750;DHT22;10535;50.664;4.564;2023-10-08T14:48:06;24.20;99.90
20750;DHT22;10535;50.664;4.564;2023-10-08T14:50:36;24.30;99.90
20750;DHT22;10535;50.664;4.564;2023-10-08T14:53:04;24.30;99.90
20750;DHT22;10535;50.664;4.564;2023-10-08T14:55:31;24.30;99.90
20750;DHT22;10535;50.664;4.564;2023-10-08T14:58:00;24.40;99.90
20750;DHT22;10535;50.664;4.564;2023-10-08T15:00:32;24.40;99.90
20750;DHT22;10535;50.664;4.564;2023-10-08T15:02:57;24.20;99.90
20750;DHT22;10535;50.664;4.564;2023-10-08T15:05:28;24.20;99.90
20750;DHT22;10535;50.664;4.564;2023-10-08T15:07:54;24.20;99.90
20750;DHT22;10535;50.664;4.564;2023-10-08T15:10:20;24.10;99.90
20750;DHT22;10535;50.664;4.564;2023-10-08T15:12:49;24.00;99.90
20750;DHT22;10535;50.664;4.564;2023-10-08T15:15:17;24.10;99.90
20750;DHT22;10535;50.664;4.564;2023-10-08T15:17:44;24.00;99.90
20750;DHT22;10535;50.664;4.564;2023-10-08T15:20:14;23.90;99.90
20750;DHT22;10535;50.664;4.564;2023-10-08T15:22:46;23.80;99.90
20750;DHT22;10535;50.664;4.564;2023-10-08T15:25:16;23.80;99.90
20750;DHT22;10535;50.664;4.564;2023-10-08T15:27:46;23.60;99.90
20750;DHT22;10535;50.664;4.564;2023-10-08T15:30:14;23.70;99.90
20750;DHT22;10535;50.664;4.564;2023-10-08T15:32:46;23.70;99.90
20750;DHT22;10535;50.664;4.564;2023-10-08T15:35:18;23.70;99.90
20750;DHT22;10535;50.664;4.564;2023-10-08T15:37:50;23.80;99.90
20750;DHT22;10535;50.664;4.564;2023-10-08T15:40:16;23.70;99.90
20750;DHT22;10535;50.664;4.564;2023-10-08T15:42:56;23.70;99.90
20750;DHT22;10535;50.664;4.564;2023-10-08T15:45:24;23.80;99.90
20750;DHT22;10535;50.664;4.564;2023-10-08T15:47:50;23.80;99.90
20750;DHT22;10535;50.664;4.564;2023-10-08T15:50:16;23.60;99.90
20750;DHT22;10535;50.664;4.564;2023-10-08T15:52:42;23.50;99.90
20750;DHT22;10535;50.664;4.564;2023-10-08T15:55:08;23.50;99.90
20750;DHT22;10535;50.664;4.564;2023-10-08T15:57:36;23.60;99.90
20750;DHT22;10535;50.664;4.564;2023-10-08T16:00:02;23.40;99.90
20750;DHT22;10535;50.664;4.564;2023-10-08T16:02:28;23.50;99.90
20750;DHT22;10535;50.664;4.564;2023-10-08T16:04:54;23.50;99.90
20750;DHT22;10535;50.664;4.564;2023-10-08T16:07:20;23.50;99.90
20750;DHT22;10535;50.664;4.564;2023-10-08T16:09:46;23.50;99.90
20750;DHT22;10535;50.664;4.564;2023-10-08T16:12:12;23.40;99.90
20750;DHT22;10535;50.664;4.564;2023-10-08T16:14:38;23.40;99.90
20750;DHT22;10535;50.664;4.564;2023-10-08T16:17:04;23.20;99.90
20750;DHT22;10535;50.664;4.564;2023-10-08T16:19:33;23.30;99.90
20750;DHT22;10535;50.664;4.564;2023-10-08T16:21:58;23.20;99.90
20750;DHT22;10535;50.664;4.564;2023-10-08T16:24:24;23.00;99.90
20750;DHT22;10535;50.664;4.564;2023-10-08T16:26:51;22.90;99.90
20750;DHT22;10535;50.664;4.564;2023-10-08T16:29:18;22.80;99.90
20750;DHT22;10535;50.664;4.564;2023-10-08T16:31:45;22.70;99.90
20750;DHT22;10535;50.664;4.564;2023-10-08T16:34:13;22.60;99.90
20750;DHT22;10535;50.664;4.564;2023-10-08T16:36:41;22.60;99.90